sensor_id;sensor_type;location;lat;lon;timestamp;pressure;altitude;pressure_sealevel;temperature;humidity
51715;BME280;39115;59.332;18.034;2024-02-15T00:00:47;101594.34;;;1.41;65.41
51715;BME280;39115;59.332;18.034;2024-02-15T00:03:08;101586.44;;;1.43;65.19
51715;BME280;39115;59.332;18.034;2024-02-15T00:05:29;101596.94;;;1.43;65.47
51715;BME280;39115;59.332;18.034;2024-02-15T00:07:49;101590.72;;;1.46;65.25
51715;BME280;39115;59.332;18.034;2024-02-15T00:10:10;101593.38;;;1.44;65.31
51715;BME280;39115;59.332;18.034;2024-02-15T00:12:30;101589.00;;;1.45;65.18
51715;BME280;39115;59.332;18.034;2024-02-15T00:14:51;101593.38;;;1.44;65.68
51715;BME280;39115;59.332;18.034;2024-02-15T00:17:11;101595.09;;;1.45;65.58
51715;BME280;39115;59.332;18.034;2024-02-15T00:19:32;101589.84;;;1.45;65.34
51715;BME280;39115;59.332;18.034;2024-02-15T00:21:52;101601.22;;;1.46;65.07
51715;BME280;39115;59.332;18.034;2024-02-15T00:24:16;101583.75;;;1.45;65.34
51715;BME280;39115;59.332;18.034;2024-02-15T00:26:37;101593.34;;;1.46;65.24
51715;BME280;39115;59.332;18.034;2024-02-15T00:28:58;101588.09;;;1.46;65.17
51715;BME280;39115;59.332;18.034;2024-02-15T00:31:18;101587.22;;;1.45;65.25
51715;BME280;39115;59.332;18.034;2024-02-15T00:33:39;101588.94;;;1.46;65.20
51715;BME280;39115;59.332;18.034;2024-02-15T00:35:59;101580.22;;;1.46;65.22
51715;BME280;39115;59.332;18.034;2024-02-15T00:38:20;101571.44;;;1.47;65.49
51715;BME280;39115;59.332;18.034;2024-02-15T00:40:40;101586.31;;;1.46;65.51
51715;BME280;39115;59.332;18.034;2024-02-15T00:43:01;101586.31;;;1.46;65.11
51715;BME280;39115;59.332;18.034;2024-02-15T00:45:22;101579.31;;;1.47;65.30
51715;BME280;39115;59.332;18.034;2024-02-15T00:47:42;101581.94;;;1.47;65.60
51715;BME280;39115;59.332;18.034;2024-02-15T00:50:03;101585.41;;;1.47;65.53
51715;BME280;39115;59.332;18.034;2024-02-15T00:52:23;101585.41;;;1.47;65.49
51715;BME280;39115;59.332;18.034;2024-02-15T00:54:44;101581.94;;;1.47;65.35
51715;BME280;39115;59.332;18.034;2024-02-15T00:57:05;101580.16;;;1.47;65.54
51715;BME280;39115;59.332;18.034;2024-02-15T00:59:25;101581.03;;;1.48;65.47
51715;BME280;39115;59.332;18.034;2024-02-15T01:01:46;101588.91;;;1.48;65.45
51715;BME280;39115;59.332;18.034;2024-02-15T01:04:08;101592.38;;;1.48;65.37
51715;BME280;39115;59.332;18.034;2024-02-15T01:06:28;101593.22;;;1.49;65.67
51715;BME280;39115;59.332;18.034;2024-02-15T01:08:49;101588.91;;;1.48;65.08
51715;BME280;39115;59.332;18.034;2024-02-15T01:11:09;101590.59;;;1.49;65.34
51715;BME280;39115;59.332;18.034;2024-02-15T01:13:30;101582.72;;;1.49;65.06
51715;BME280;39115;59.332;18.034;2024-02-15T01:15:50;101587.06;;;1.50;65.21
51715;BME280;39115;59.332;18.034;2024-02-15T01:18:11;101591.47;;;1.49;65.40
51715;BME280;39115;59.332;18.034;2024-02-15T01:20:32;101589.75;;;1.48;65.19
51715;BME280;39115;59.332;18.034;2024-02-15T01:22:52;101586.22;;;1.49;64.91
51715;BME280;39115;59.332;18.034;2024-02-15T01:25:13;101576.63;;;1.48;65.27
51715;BME280;39115;59.332;18.034;2024-02-15T01:27:35;101576.63;;;1.48;65.21
51715;BME280;39115;59.332;18.034;2024-02-15T01:29:56;101573.94;;;1.50;65.10
51715;BME280;39115;59.332;18.034;2024-02-15T01:32:17;101575.72;;;1.49;65.65
51715;BME280;39115;59.332;18.034;2024-02-15T01:34:37;101577.44;;;1.50;65.40
51715;BME280;39115;59.332;18.034;2024-02-15T01:36:58;101572.22;;;1.49;65.38
51715;BME280;39115;59.332;18.034;2024-02-15T01:39:19;101577.44;;;1.50;65.38
51715;BME280;39115;59.332;18.034;2024-02-15T01:41:39;101570.41;;;1.51;65.44
51715;BME280;39115;59.332;18.034;2024-02-15T01:44:00;101569.56;;;1.50;65.49
51715;BME280;39115;59.332;18.034;2024-02-15T01:46:21;101567.84;;;1.49;65.24
51715;BME280;39115;59.332;18.034;2024-02-15T01:48:42;101569.56;;;1.50;65.69
51715;BME280;39115;59.332;18.034;2024-02-15T01:51:04;101566.03;;;1.51;65.30
51715;BME280;39115;59.332;18.034;2024-02-15T01:53:26;101569.56;;;1.50;65.38
51715;BME280;39115;59.332;18.034;2024-02-15T01:55:47;101568.69;;;1.50;65.31
51715;BME280;39115;59.332;18.034;2024-02-15T01:58:08;101569.50;;;1.52;65.07
51715;BME280;39115;59.332;18.034;2024-02-15T02:00:30;101556.38;;;1.52;65.16
51715;BME280;39115;59.332;18.034;2024-02-15T02:02:51;101554.59;;;1.52;65.26
51715;BME280;39115;59.332;18.034;2024-02-15T02:05:13;101558.16;;;1.51;65.36
51715;BME280;39115;59.332;18.034;2024-02-15T02:07:34;101551.13;;;1.52;65.26
51715;BME280;39115;59.332;18.034;2024-02-15T02:09:54;101553.75;;;1.52;65.15
51715;BME280;39115;59.332;18.034;2024-02-15T02:12:15;101555.53;;;1.51;65.20
51715;BME280;39115;59.332;18.034;2024-02-15T02:14:36;101557.28;;;1.51;65.55
51715;BME280;39115;59.332;18.034;2024-02-15T02:17:10;101563.34;;;1.53;65.52
51715;BME280;39115;59.332;18.034;2024-02-15T02:19:31;101562.47;;;1.52;65.34
51715;BME280;39115;59.332;18.034;2024-02-15T02:21:51;101556.38;;;1.52;65.46
51715;BME280;39115;59.332;18.034;2024-02-15T02:24:21;101565.09;;;1.52;65.35
51715;BME280;39115;59.332;18.034;2024-02-15T02:26:42;101557.22;;;1.52;65.40
51715;BME280;39115;59.332;18.034;2024-02-15T02:29:03;101562.47;;;1.52;65.58
51715;BME280;39115;59.332;18.034;2024-02-15T02:31:25;101562.47;;;1.52;65.39
51715;BME280;39115;59.332;18.034;2024-02-15T02:33:52;101561.56;;;1.53;65.22
51715;BME280;39115;59.332;18.034;2024-02-15T02:36:13;101557.22;;;1.52;65.46
51715;BME280;39115;59.332;18.034;2024-02-15T02:38:33;101565.97;;;1.53;65.40
51715;BME280;39115;59.332;18.034;2024-02-15T02:40:54;101560.66;;;1.54;65.48
51715;BME280;39115;59.332;18.034;2024-02-15T02:43:14;101562.44;;;1.54;65.28
51715;BME280;39115;59.332;18.034;2024-02-15T02:45:35;101559.81;;;1.54;65.60
51715;BME280;39115;59.332;18.034;2024-02-15T02:47:55;101562.44;;;1.54;65.40
51715;BME280;39115;59.332;18.034;2024-02-15T02:50:16;101564.19;;;1.53;65.52
51715;BME280;39115;59.332;18.034;2024-02-15T02:52:36;101561.53;;;1.55;65.70
51715;BME280;39115;59.332;18.034;2024-02-15T02:54:59;101565.91;;;1.54;65.49
51715;BME280;39115;59.332;18.034;2024-02-15T02:57:19;101558.94;;;1.53;65.51
51715;BME280;39115;59.332;18.034;2024-02-15T02:59:40;101554.56;;;1.54;65.31
51715;BME280;39115;59.332;18.034;2024-02-15T03:02:01;101554.56;;;1.54;65.29
51715;BME280;39115;59.332;18.034;2024-02-15T03:04:22;101556.28;;;1.55;65.48
51715;BME280;39115;59.332;18.034;2024-02-15T03:06:43;101551.88;;;1.55;65.41
51715;BME280;39115;59.332;18.034;2024-02-15T03:09:03;101548.41;;;1.55;65.13
51715;BME280;39115;59.332;18.034;2024-02-15T03:11:27;101554.50;;;1.55;65.40
51715;BME280;39115;59.332;18.034;2024-02-15T03:13:48;101550.09;;;1.56;65.35
51715;BME280;39115;59.332;18.034;2024-02-15T03:16:08;101547.53;;;1.54;65.21
51715;BME280;39115;59.332;18.034;2024-02-15T03:18:29;101543.09;;;1.56;65.24
51715;BME280;39115;59.332;18.034;2024-02-15T03:20:49;101549.31;;;1.54;65.23
51715;BME280;39115;59.332;18.034;2024-02-15T03:23:10;101555.34;;;1.56;65.40
51715;BME280;39115;59.332;18.034;2024-02-15T03:25:31;101552.72;;;1.56;65.31
51715;BME280;39115;59.332;18.034;2024-02-15T03:27:52;101550.09;;;1.56;65.50
51715;BME280;39115;59.332;18.034;2024-02-15T03:30:13;101555.34;;;1.56;65.39
51715;BME280;39115;59.332;18.034;2024-02-15T03:32:34;101566.69;;;1.56;65.39
51715;BME280;39115;59.332;18.034;2024-02-15T03:34:54;101552.72;;;1.56;65.57
51715;BME280;39115;59.332;18.034;2024-02-15T03:37:15;101555.34;;;1.56;65.56
51715;BME280;39115;59.332;18.034;2024-02-15T03:39:36;101564.06;;;1.56;64.93
51715;BME280;39115;59.332;18.034;2024-02-15T03:41:57;101568.41;;;1.57;65.63
51715;BME280;39115;59.332;18.034;2024-02-15T03:44:19;101568.41;;;1.57;65.63
51715;BME280;39115;59.332;18.034;2024-02-15T03:46:39;101568.41;;;1.57;65.48
51715;BME280;39115;59.332;18.034;2024-02-15T03:49:00;101571.88;;;1.58;65.50
51715;BME280;39115;59.332;18.034;2024-02-15T03:51:21;101564.06;;;1.56;65.62
51715;BME280;39115;59.332;18.034;2024-02-15T03:53:43;101569.25;;;1.58;65.65
51715;BME280;39115;59.332;18.034;2024-02-15T03:56:04;101566.63;;;1.58;65.37
51715;BME280;39115;59.332;18.034;2024-02-15T03:58:24;101568.41;;;1.57;65.63
51715;BME280;39115;59.332;18.034;2024-02-15T04:00:45;101571.88;;;1.58;65.46
51715;BME280;39115;59.332;18.034;2024-02-15T04:03:06;101575.38;;;1.58;65.64
51715;BME280;39115;59.332;18.034;2024-02-15T04:05:26;101571.03;;;1.57;65.39
51715;BME280;39115;59.332;18.034;2024-02-15T04:07:47;101570.97;;;1.59;65.52
51715;BME280;39115;59.332;18.034;2024-02-15T04:10:08;101566.56;;;1.60;65.46
51715;BME280;39115;59.332;18.034;2024-02-15T04:12:28;101570.06;;;1.60;65.58
51715;BME280;39115;59.332;18.034;2024-02-15T04:14:49;101573.59;;;1.59;65.37
51715;BME280;39115;59.332;18.034;2024-02-15T04:17:11;101574.44;;;1.60;65.62
51715;BME280;39115;59.332;18.034;2024-02-15T04:19:36;101572.69;;;1.60;65.29
51715;BME280;39115;59.332;18.034;2024-02-15T04:21:57;101573.59;;;1.59;65.33
51715;BME280;39115;59.332;18.034;2024-02-15T04:24:17;101576.22;;;1.59;65.61
51715;BME280;39115;59.332;18.034;2024-02-15T04:26:38;101572.69;;;1.60;65.62
51715;BME280;39115;59.332;18.034;2024-02-15T04:28:59;101577.06;;;1.60;65.43
51715;BME280;39115;59.332;18.034;2024-02-15T04:31:19;101577.94;;;1.60;65.34
51715;BME280;39115;59.332;18.034;2024-02-15T04:33:42;101580.56;;;1.60;65.78
51715;BME280;39115;59.332;18.034;2024-02-15T04:36:02;101574.44;;;1.60;65.42
51715;BME280;39115;59.332;18.034;2024-02-15T04:38:26;101583.19;;;1.60;65.81
51715;BME280;39115;59.332;18.034;2024-02-15T04:40:47;101578.78;;;1.61;65.58
51715;BME280;39115;59.332;18.034;2024-02-15T04:43:07;101573.53;;;1.61;65.48
51715;BME280;39115;59.332;18.034;2024-02-15T04:45:29;101572.63;;;1.62;65.52
51715;BME280;39115;59.332;18.034;2024-02-15T04:47:51;101567.44;;;1.60;65.31
51715;BME280;39115;59.332;18.034;2024-02-15T04:50:12;101571.78;;;1.61;65.57
51715;BME280;39115;59.332;18.034;2024-02-15T04:52:33;101578.78;;;1.61;65.63
51715;BME280;39115;59.332;18.034;2024-02-15T04:54:54;101577.03;;;1.61;65.46
51715;BME280;39115;59.332;18.034;2024-02-15T04:57:15;101570.91;;;1.61;65.42
51715;BME280;39115;59.332;18.034;2024-02-15T04:59:37;101575.25;;;1.62;65.49
51715;BME280;39115;59.332;18.034;2024-02-15T05:01:58;101570.88;;;1.62;65.61
51715;BME280;39115;59.332;18.034;2024-02-15T05:04:18;101571.78;;;1.61;65.54
51715;BME280;39115;59.332;18.034;2024-02-15T05:06:39;101568.25;;;1.62;65.50
51715;BME280;39115;59.332;18.034;2024-02-15T05:09:00;101564.75;;;1.62;65.38
51715;BME280;39115;59.332;18.034;2024-02-15T05:11:20;101568.25;;;1.62;65.67
51715;BME280;39115;59.332;18.034;2024-02-15T05:13:42;101572.59;;;1.63;65.49
51715;BME280;39115;59.332;18.034;2024-02-15T05:16:03;101568.25;;;1.62;65.29
51715;BME280;39115;59.332;18.034;2024-02-15T05:18:24;101568.25;;;1.62;65.52
51715;BME280;39115;59.332;18.034;2024-02-15T05:20:44;101579.59;;;1.63;65.60
51715;BME280;39115;59.332;18.034;2024-02-15T05:23:05;101569.97;;;1.63;65.53
51715;BME280;39115;59.332;18.034;2024-02-15T05:25:25;101572.59;;;1.63;65.49
51715;BME280;39115;59.332;18.034;2024-02-15T05:27:47;101570.88;;;1.62;65.41
51715;BME280;39115;59.332;18.034;2024-02-15T05:30:08;101578.69;;;1.64;65.56
51715;BME280;39115;59.332;18.034;2024-02-15T05:32:29;101577.84;;;1.63;65.42
51715;BME280;39115;59.332;18.034;2024-02-15T05:34:49;101576.06;;;1.64;65.57
51715;BME280;39115;59.332;18.034;2024-02-15T05:37:09;101572.59;;;1.63;65.57
51715;BME280;39115;59.332;18.034;2024-02-15T05:39:30;101573.44;;;1.64;65.74
51715;BME280;39115;59.332;18.034;2024-02-15T05:41:51;101571.72;;;1.63;65.56
51715;BME280;39115;59.332;18.034;2024-02-15T05:44:11;101576.06;;;1.64;65.63
51715;BME280;39115;59.332;18.034;2024-02-15T05:46:34;101577.84;;;1.63;65.64
51715;BME280;39115;59.332;18.034;2024-02-15T05:48:57;101581.31;;;1.64;65.30
51715;BME280;39115;59.332;18.034;2024-02-15T05:51:18;101593.53;;;1.65;65.28
51715;BME280;39115;59.332;18.034;2024-02-15T05:53:38;101597.06;;;1.64;65.66
51715;BME280;39115;59.332;18.034;2024-02-15T05:55:59;101594.44;;;1.64;65.75
51715;BME280;39115;59.332;18.034;2024-02-15T05:58:19;101592.66;;;1.64;65.52
51715;BME280;39115;59.332;18.034;2024-02-15T06:00:40;101597.00;;;1.65;65.39
51715;BME280;39115;59.332;18.034;2024-02-15T06:03:01;101591.81;;;1.64;65.70
51715;BME280;39115;59.332;18.034;2024-02-15T06:05:22;101593.53;;;1.65;65.58
51715;BME280;39115;59.332;18.034;2024-02-15T06:07:44;101596.16;;;1.65;65.56
51715;BME280;39115;59.332;18.034;2024-02-15T06:10:06;101599.63;;;1.65;65.79
51715;BME280;39115;59.332;18.034;2024-02-15T06:12:27;101602.25;;;1.65;65.70
51715;BME280;39115;59.332;18.034;2024-02-15T06:14:48;101598.78;;;1.65;65.64
51715;BME280;39115;59.332;18.034;2024-02-15T06:17:09;101601.41;;;1.65;65.67
51715;BME280;39115;59.332;18.034;2024-02-15T06:19:30;101605.75;;;1.66;65.46
51715;BME280;39115;59.332;18.034;2024-02-15T06:21:53;101606.59;;;1.66;65.47
51715;BME280;39115;59.332;18.034;2024-02-15T06:24:13;101601.34;;;1.66;65.61
51715;BME280;39115;59.332;18.034;2024-02-15T06:26:34;101597.91;;;1.64;65.47
51715;BME280;39115;59.332;18.034;2024-02-15T06:28:54;101603.13;;;1.66;65.31
51715;BME280;39115;59.332;18.034;2024-02-15T06:31:33;101603.97;;;1.66;65.29
51715;BME280;39115;59.332;18.034;2024-02-15T06:34:12;101606.66;;;1.65;65.57
51715;BME280;39115;59.332;18.034;2024-02-15T06:36:56;101603.16;;;1.64;65.55
51715;BME280;39115;59.332;18.034;2024-02-15T06:39:35;101608.38;;;1.66;65.60
51715;BME280;39115;59.332;18.034;2024-02-15T06:42:01;101612.75;;;1.65;65.70
51715;BME280;39115;59.332;18.034;2024-02-15T06:44:22;101606.66;;;1.65;65.66
51715;BME280;39115;59.332;18.034;2024-02-15T06:46:44;101612.75;;;1.65;65.62
51715;BME280;39115;59.332;18.034;2024-02-15T06:49:06;101612.75;;;1.65;65.56
51715;BME280;39115;59.332;18.034;2024-02-15T06:51:27;101617.16;;;1.65;65.72
51715;BME280;39115;59.332;18.034;2024-02-15T06:53:47;101608.38;;;1.66;65.44
51715;BME280;39115;59.332;18.034;2024-02-15T06:56:11;101613.56;;;1.67;65.73
51715;BME280;39115;59.332;18.034;2024-02-15T06:58:33;101624.06;;;1.67;65.73
51715;BME280;39115;59.332;18.034;2024-02-15T07:00:53;101616.19;;;1.67;65.59
51715;BME280;39115;59.332;18.034;2024-02-15T07:03:14;101630.16;;;1.68;65.62
51715;BME280;39115;59.332;18.034;2024-02-15T07:05:37;101631.94;;;1.67;65.90
51715;BME280;39115;59.332;18.034;2024-02-15T07:08:01;101628.47;;;1.67;65.49
51715;BME280;39115;59.332;18.034;2024-02-15T07:10:22;101634.47;;;1.69;65.66
51715;BME280;39115;59.332;18.034;2024-02-15T07:12:42;101628.41;;;1.68;65.75
51715;BME280;39115;59.332;18.034;2024-02-15T07:15:05;101634.47;;;1.69;65.64
51715;BME280;39115;59.332;18.034;2024-02-15T07:17:30;101627.53;;;1.68;65.88
51715;BME280;39115;59.332;18.034;2024-02-15T07:19:50;101633.66;;;1.68;65.60
51715;BME280;39115;59.332;18.034;2024-02-15T07:22:11;101634.47;;;1.69;65.56
51715;BME280;39115;59.332;18.034;2024-02-15T07:24:31;101627.50;;;1.69;65.43
51715;BME280;39115;59.332;18.034;2024-02-15T07:26:52;101627.50;;;1.69;65.66
51715;BME280;39115;59.332;18.034;2024-02-15T07:29:15;101628.31;;;1.70;65.43
51715;BME280;39115;59.332;18.034;2024-02-15T07:31:35;101628.31;;;1.70;65.55
51715;BME280;39115;59.332;18.034;2024-02-15T07:33:56;101626.56;;;1.70;65.63
51715;BME280;39115;59.332;18.034;2024-02-15T07:36:20;101624.78;;;1.71;65.56
51715;BME280;39115;59.332;18.034;2024-02-15T07:38:43;101627.41;;;1.71;65.93
51715;BME280;39115;59.332;18.034;2024-02-15T07:41:05;101620.44;;;1.70;65.83
51715;BME280;39115;59.332;18.034;2024-02-15T07:43:27;101625.63;;;1.71;65.54
51715;BME280;39115;59.332;18.034;2024-02-15T07:45:47;101628.25;;;1.71;65.82
51715;BME280;39115;59.332;18.034;2024-02-15T07:48:09;101630.03;;;1.71;65.73
51715;BME280;39115;59.332;18.034;2024-02-15T07:50:30;101628.22;;;1.73;65.58
51715;BME280;39115;59.332;18.034;2024-02-15T07:52:51;101630.84;;;1.73;65.55
51715;BME280;39115;59.332;18.034;2024-02-15T07:55:11;101625.59;;;1.73;65.66
51715;BME280;39115;59.332;18.034;2024-02-15T07:57:32;101622.06;;;1.74;65.68
51715;BME280;39115;59.332;18.034;2024-02-15T07:59:52;101624.72;;;1.72;65.45
51715;BME280;39115;59.332;18.034;2024-02-15T08:02:13;101622.91;;;1.74;65.87
51715;BME280;39115;59.332;18.034;2024-02-15T08:04:37;101623.75;;;1.75;65.59
51715;BME280;39115;59.332;18.034;2024-02-15T08:07:00;101629.88;;;1.76;65.59
51715;BME280;39115;59.332;18.034;2024-02-15T08:09:21;101626.38;;;1.75;65.67
51715;BME280;39115;59.332;18.034;2024-02-15T08:11:42;101622.00;;;1.76;65.66
51715;BME280;39115;59.332;18.034;2024-02-15T08:14:02;101621.25;;;1.72;65.57
51715;BME280;39115;59.332;18.034;2024-02-15T08:16:23;101625.47;;;1.76;65.68
51715;BME280;39115;59.332;18.034;2024-02-15T08:18:43;101628.06;;;1.78;65.89
51715;BME280;39115;59.332;18.034;2024-02-15T08:21:05;101626.28;;;1.78;65.60
51715;BME280;39115;59.332;18.034;2024-02-15T08:23:25;101626.28;;;1.78;65.65
51715;BME280;39115;59.332;18.034;2024-02-15T08:25:47;101630.56;;;1.81;65.49
51715;BME280;39115;59.332;18.034;2024-02-15T08:28:08;101627.09;;;1.80;65.28
51715;BME280;39115;59.332;18.034;2024-02-15T08:30:28;101631.44;;;1.81;65.63
51715;BME280;39115;59.332;18.034;2024-02-15T08:32:49;101637.53;;;1.82;65.88
51715;BME280;39115;59.332;18.034;2024-02-15T08:35:11;101623.56;;;1.81;65.28
51715;BME280;39115;59.332;18.034;2024-02-15T08:37:32;101624.34;;;1.83;65.60
51715;BME280;39115;59.332;18.034;2024-02-15T08:39:56;101626.06;;;1.84;65.30
51715;BME280;39115;59.332;18.034;2024-02-15T08:42:17;101626.91;;;1.85;65.65
51715;BME280;39115;59.332;18.034;2024-02-15T08:44:42;101626.00;;;1.86;65.66
51715;BME280;39115;59.332;18.034;2024-02-15T08:47:02;101632.09;;;1.86;65.61
51715;BME280;39115;59.332;18.034;2024-02-15T08:49:25;101627.69;;;1.87;65.55
51715;BME280;39115;59.332;18.034;2024-02-15T08:51:45;101632.00;;;1.89;65.28
51715;BME280;39115;59.332;18.034;2024-02-15T08:54:06;101623.25;;;1.89;65.37
51715;BME280;39115;59.332;18.034;2024-02-15T08:56:26;101621.50;;;1.89;65.64
51715;BME280;39115;59.332;18.034;2024-02-15T08:58:47;101626.69;;;1.91;65.62
51715;BME280;39115;59.332;18.034;2024-02-15T09:01:07;101631.03;;;1.92;65.55
51715;BME280;39115;59.332;18.034;2024-02-15T09:03:28;101629.25;;;1.93;65.63
51715;BME280;39115;59.332;18.034;2024-02-15T09:05:49;101633.59;;;1.94;65.45
51715;BME280;39115;59.332;18.034;2024-02-15T09:08:09;101630.06;;;1.95;65.66
51715;BME280;39115;59.332;18.034;2024-02-15T09:10:30;101637.03;;;1.96;65.55
51715;BME280;39115;59.332;18.034;2024-02-15T09:12:51;101634.34;;;1.97;65.34
51715;BME280;39115;59.332;18.034;2024-02-15T09:15:11;101628.25;;;1.97;65.26
51715;BME280;39115;59.332;18.034;2024-02-15T09:17:32;101628.16;;;1.98;65.60
51715;BME280;39115;59.332;18.034;2024-02-15T09:19:52;101638.59;;;2.00;65.64
51715;BME280;39115;59.332;18.034;2024-02-15T09:22:14;101636.84;;;2.00;65.59
51715;BME280;39115;59.332;18.034;2024-02-15T09:24:37;101632.38;;;2.02;65.45
51715;BME280;39115;59.332;18.034;2024-02-15T09:26:57;101635.88;;;2.03;65.53
51715;BME280;39115;59.332;18.034;2024-02-15T09:29:18;101627.94;;;2.04;65.61
51715;BME280;39115;59.332;18.034;2024-02-15T09:31:40;101631.44;;;2.05;65.72
51715;BME280;39115;59.332;18.034;2024-02-15T09:34:00;101633.16;;;2.06;65.62
51715;BME280;39115;59.332;18.034;2024-02-15T09:36:21;101628.75;;;2.07;65.65
51715;BME280;39115;59.332;18.034;2024-02-15T09:38:41;101625.19;;;2.08;65.75
51715;BME280;39115;59.332;18.034;2024-02-15T09:41:02;101626.00;;;2.10;65.55
51715;BME280;39115;59.332;18.034;2024-02-15T09:43:22;101623.38;;;2.10;65.69
51715;BME280;39115;59.332;18.034;2024-02-15T09:45:47;101622.44;;;2.11;65.44
51715;BME280;39115;59.332;18.034;2024-02-15T09:48:10;101620.69;;;2.11;65.41
51715;BME280;39115;59.332;18.034;2024-02-15T09:50:34;101625.88;;;2.13;65.44
51715;BME280;39115;59.332;18.034;2024-02-15T09:52:55;101624.97;;;2.14;65.32
51715;BME280;39115;59.332;18.034;2024-02-15T09:55:17;101629.31;;;2.15;65.65
51715;BME280;39115;59.332;18.034;2024-02-15T09:57:38;101627.53;;;2.15;65.30
51715;BME280;39115;59.332;18.034;2024-02-15T09:59:59;101623.91;;;2.18;65.44
51715;BME280;39115;59.332;18.034;2024-02-15T10:02:28;101633.50;;;2.19;65.49
51715;BME280;39115;59.332;18.034;2024-02-15T10:04:49;101631.75;;;2.19;65.53
51715;BME280;39115;59.332;18.034;2024-02-15T10:07:12;101636.09;;;2.20;65.71
51715;BME280;39115;59.332;18.034;2024-02-15T10:09:33;101641.28;;;2.22;65.58
51715;BME280;39115;59.332;18.034;2024-02-15T10:11:58;101630.78;;;2.22;65.54
51715;BME280;39115;59.332;18.034;2024-02-15T10:14:18;101630.72;;;2.24;65.62
51715;BME280;39115;59.332;18.034;2024-02-15T10:16:42;101621.06;;;2.24;65.62
51715;BME280;39115;59.332;18.034;2024-02-15T10:19:10;101619.22;;;2.26;65.55
51715;BME280;39115;59.332;18.034;2024-02-15T10:21:31;101616.59;;;2.26;65.63
51715;BME280;39115;59.332;18.034;2024-02-15T10:24:06;101620.94;;;2.27;65.56
51715;BME280;39115;59.332;18.034;2024-02-15T10:26:27;101622.66;;;2.28;65.39
51715;BME280;39115;59.332;18.034;2024-02-15T10:29:04;101625.22;;;2.30;65.45
51715;BME280;39115;59.332;18.034;2024-02-15T10:31:25;101626.09;;;2.30;65.50
51715;BME280;39115;59.332;18.034;2024-02-15T10:33:46;101634.81;;;2.31;65.54
51715;BME280;39115;59.332;18.034;2024-02-15T10:36:10;101639.16;;;2.32;65.34
51715;BME280;39115;59.332;18.034;2024-02-15T10:38:36;101640.88;;;2.33;65.40
51715;BME280;39115;59.332;18.034;2024-02-15T10:41:03;101637.34;;;2.34;65.53
51715;BME280;39115;59.332;18.034;2024-02-15T10:43:25;101633.78;;;2.35;65.40
51715;BME280;39115;59.332;18.034;2024-02-15T10:45:46;101630.25;;;2.36;65.44
51715;BME280;39115;59.332;18.034;2024-02-15T10:48:10;101624.09;;;2.37;65.63
51715;BME280;39115;59.332;18.034;2024-02-15T10:50:31;101624.94;;;2.37;65.59
51715;BME280;39115;59.332;18.034;2024-02-15T10:52:55;101619.59;;;2.39;65.44
51715;BME280;39115;59.332;18.034;2024-02-15T10:55:42;101615.25;;;2.38;65.68
51715;BME280;39115;59.332;18.034;2024-02-15T10:58:01;101627.44;;;2.41;65.41
51715;BME280;39115;59.332;18.034;2024-02-15T11:00:26;101618.63;;;2.42;65.58
51715;BME280;39115;59.332;18.034;2024-02-15T11:03:02;101622.97;;;2.43;65.35
51715;BME280;39115;59.332;18.034;2024-02-15T11:05:25;101629.09;;;2.43;65.32
51715;BME280;39115;59.332;18.034;2024-02-15T11:07:45;101622.94;;;2.44;65.27
51715;BME280;39115;59.332;18.034;2024-02-15T11:10:07;101625.47;;;2.46;65.44
51715;BME280;39115;59.332;18.034;2024-02-15T11:12:30;101613.19;;;2.46;65.59
51715;BME280;39115;59.332;18.034;2024-02-15T11:14:51;101617.47;;;2.49;65.66
51715;BME280;39115;59.332;18.034;2024-02-15T11:20:00;101606.91;;;2.50;65.57
51715;BME280;39115;59.332;18.034;2024-02-15T11:22:20;101619.13;;;2.51;65.46
51715;BME280;39115;59.332;18.034;2024-02-15T11:24:52;101609.41;;;2.53;65.36
51715;BME280;39115;59.332;18.034;2024-02-15T11:27:24;101614.59;;;2.55;65.52
51715;BME280;39115;59.332;18.034;2024-02-15T11:29:57;101599.75;;;2.54;65.44
51715;BME280;39115;59.332;18.034;2024-02-15T11:32:43;101603.19;;;2.56;65.35
51715;BME280;39115;59.332;18.034;2024-02-15T11:35:08;101607.50;;;2.57;65.42
51715;BME280;39115;59.332;18.034;2024-02-15T11:40:09;101613.47;;;2.61;65.35
51715;BME280;39115;59.332;18.034;2024-02-15T11:42:31;101620.47;;;2.62;65.47
51715;BME280;39115;59.332;18.034;2024-02-15T11:45:02;101626.50;;;2.64;65.35
51715;BME280;39115;59.332;18.034;2024-02-15T11:47:25;101627.38;;;2.64;65.34
51715;BME280;39115;59.332;18.034;2024-02-15T11:49:47;101635.22;;;2.66;65.36
51715;BME280;39115;59.332;18.034;2024-02-15T11:52:10;101627.31;;;2.66;65.59
51715;BME280;39115;59.332;18.034;2024-02-15T11:54:31;101629.03;;;2.67;65.49
51715;BME280;39115;59.332;18.034;2024-02-15T11:56:56;101628.97;;;2.68;65.47
51715;BME280;39115;59.332;18.034;2024-02-15T11:59:46;101628.97;;;2.68;65.38
51715;BME280;39115;59.332;18.034;2024-02-15T12:02:26;101630.69;;;2.69;65.40
51715;BME280;39115;59.332;18.034;2024-02-15T12:05:05;101629.75;;;2.71;65.58
51715;BME280;39115;59.332;18.034;2024-02-15T12:07:44;101631.47;;;2.72;65.40
51715;BME280;39115;59.332;18.034;2024-02-15T12:10:23;101624.44;;;2.72;65.43
51715;BME280;39115;59.332;18.034;2024-02-15T12:13:03;101626.16;;;2.73;65.50
51715;BME280;39115;59.332;18.034;2024-02-15T12:16:00;101623.44;;;2.75;65.61
51715;BME280;39115;59.332;18.034;2024-02-15T12:18:40;101619.97;;;2.74;65.53
51715;BME280;39115;59.332;18.034;2024-02-15T12:21:03;101625.16;;;2.76;65.43
51715;BME280;39115;59.332;18.034;2024-02-15T12:23:25;101625.09;;;2.77;65.46
51715;BME280;39115;59.332;18.034;2024-02-15T12:25:52;101631.22;;;2.78;65.25
51715;BME280;39115;59.332;18.034;2024-02-15T12:28:14;101632.06;;;2.78;65.31
51715;BME280;39115;59.332;18.034;2024-02-15T12:30:35;101627.69;;;2.79;65.34